WARNING - Change wsUserSettings.php: $SITE["topfolder"] from : public_html./ to: ./
Meteoroosendaalwest wenst uw prettige feestdagen en een gezond 2021


Webcam zuid Meer informatie Webcam zuid


Webcam noord Meer informatie Webcam noord


Onweer radar Meer informatie blitzortung!


Regen radar Meer informatie rain snow radar


Bezoek onze andere website:

Template documentation
and downloads

Onze andere website


U vindt ons ook hier:

Het Weer Aktueel

UK Metoffice

European Weather Network

WeatherCloud

Weather Underground

Austria Weather Network

AWEKAS

Citizen Weather Observer Program (CWOP)

HAMweather, WeatherForYou, PWS Weather

Wetterpage 24

Roosendaal op internet

VWKWEB

RadioZuidWestFM



Het weer levert geen direct gevaar op.    Er zijn geen waarschuwingen afgegeven.

METAR rapporten vliegvelden

   
EHWO - Bergen op Zoom
Gewijzigd: 24-01-2021 09:55
Bewolking  
Bewolking  
   Wind: ZW 11.1 km/h
Wind: ZW 11.1 km/h
Temperatuur: 2°C
Voelt als: -1°C
Dauwpunt: 0°C
Vochtigheid: 87%
Barometer: 1000 hPa
Bewolking: Bewolking
Zicht: meer dan 10 km
Bewolking: Bewolking 21000 ft
EHWO 240855Z AUTO 22006KT 9999 OVC210 02/M00 Q1000 BLU
EHWO - Woensdrecht
Gewijzigd: 24-01-2021 09:55
Bewolking  
Bewolking  
   Wind: ZW 11.1 km/h
Wind: ZW 11.1 km/h
Temperatuur: 2°C
Voelt als: -1°C
Dauwpunt: 0°C
Vochtigheid: 87%
Barometer: 1000 hPa
Bewolking: Bewolking
Zicht: meer dan 10 km
Bewolking: Bewolking 21000 ft
EHWO 240855Z AUTO 22006KT 9999 OVC210 02/M00 Q1000 BLU
EHWO - Steenbergen
Gewijzigd: 24-01-2021 09:55
Bewolking  
Bewolking  
   Wind: ZW 11.1 km/h
Wind: ZW 11.1 km/h
Temperatuur: 2°C
Voelt als: -1°C
Dauwpunt: 0°C
Vochtigheid: 87%
Barometer: 1000 hPa
Bewolking: Bewolking
Zicht: meer dan 10 km
Bewolking: Bewolking 21000 ft
EHWO 240855Z AUTO 22006KT 9999 OVC210 02/M00 Q1000 BLU
EHWO - Oud-Gastel
Gewijzigd: 24-01-2021 09:55
Bewolking  
Bewolking  
   Wind: ZW 11.1 km/h
Wind: ZW 11.1 km/h
Temperatuur: 2°C
Voelt als: -1°C
Dauwpunt: 0°C
Vochtigheid: 87%
Barometer: 1000 hPa
Bewolking: Bewolking
Zicht: meer dan 10 km
Bewolking: Bewolking 21000 ft
EHWO 240855Z AUTO 22006KT 9999 OVC210 02/M00 Q1000 BLU
EHWO - Oudenbosch
Gewijzigd: 24-01-2021 09:55
Bewolking  
Bewolking  
   Wind: ZW 11.1 km/h
Wind: ZW 11.1 km/h
Temperatuur: 2°C
Voelt als: -1°C
Dauwpunt: 0°C
Vochtigheid: 87%
Barometer: 1000 hPa
Bewolking: Bewolking
Zicht: meer dan 10 km
Bewolking: Bewolking 21000 ft
EHWO 240855Z AUTO 22006KT 9999 OVC210 02/M00 Q1000 BLU
EHWO - Rucphen
Gewijzigd: 24-01-2021 09:55
Bewolking  
Bewolking  
   Wind: ZW 11.1 km/h
Wind: ZW 11.1 km/h
Temperatuur: 2°C
Voelt als: -1°C
Dauwpunt: 0°C
Vochtigheid: 87%
Barometer: 1000 hPa
Bewolking: Bewolking
Zicht: meer dan 10 km
Bewolking: Bewolking 21000 ft
EHWO 240855Z AUTO 22006KT 9999 OVC210 02/M00 Q1000 BLU
EHWO - Bergen op Zoom
Gewijzigd: 24-01-2021 09:55
Bewolking  
Bewolking  
   Wind: ZW 11.1 km/h
Wind: ZW 11.1 km/h
Temperatuur: 2°C
Voelt als: -1°C
Dauwpunt: 0°C
Vochtigheid: 87%
Barometer: 1000 hPa
Bewolking: Bewolking
Zicht: meer dan 10 km
Bewolking: Bewolking 21000 ft
EHWO 240855Z AUTO 22006KT 9999 OVC210 02/M00 Q1000 BLU
EHWO - Fijnaart
Gewijzigd: 24-01-2021 09:55
Bewolking  
Bewolking  
   Wind: ZW 11.1 km/h
Wind: ZW 11.1 km/h
Temperatuur: 2°C
Voelt als: -1°C
Dauwpunt: 0°C
Vochtigheid: 87%
Barometer: 1000 hPa
Bewolking: Bewolking
Zicht: meer dan 10 km
Bewolking: Bewolking 21000 ft
EHWO 240855Z AUTO 22006KT 9999 OVC210 02/M00 Q1000 BLU
EHWO - Ossendrecht
Gewijzigd: 24-01-2021 09:55
Bewolking  
Bewolking  
   Wind: ZW 11.1 km/h
Wind: ZW 11.1 km/h
Temperatuur: 2°C
Voelt als: -1°C
Dauwpunt: 0°C
Vochtigheid: 87%
Barometer: 1000 hPa
Bewolking: Bewolking
Zicht: meer dan 10 km
Bewolking: Bewolking 21000 ft
EHWO 240855Z AUTO 22006KT 9999 OVC210 02/M00 Q1000 BLU

Script ontwikkeld door  Saratoga-weather.org Aangepast voor de template door  Weerstation Leuven

Apparatuur in gebruik:

Weerstation
Davis VP2

Weerprogramma
Meteobridge

Weercomputer
Shuttle

Webleverancier
WeservIT

Davis VP2

Meteobridge

Shuttle

WeservIT